Purdue University Airport
KLAF : now visible

Airfield :











YOU CAN JOIN US ON...

 
LOGIN :

Register | Disclaimer

   EN    FR    IT 

 









Legend :    VFR   Marginal VFR   IFR   Intensive IFR   Very Intensive IFR
Visi :
Ceiling :
>= 8 km
>= 3000ft
5 to 8 km
1000 to 3000 ft
1500m to 5 km
500 to 1000 ft
800 to 1500m
200 to 500 ft
< 800m
< 200 ft
Symbols :   Thunderstorms  Fog  Heavy snow  Heavy precipitations  Wind > 20 kt






- Airport Elevation : 606 ft
- IATA code : LAF


KLAF - Purdue University

CURRENT METAR :
  • 081754Z VRB05KT 10SM CLR 23/10 A2973 RMK AO2 SLP061 T02330100 10233 20128 58022

EXPIRED METARs :
  • 081654Z 18003KT 10SM CLR 21/12 A2975 RMK AO2 SLP072 T02060122
  • 081554Z 14004KT 10SM CLR 17/12 A2978 RMK AO2 SLP081 T01670117

TAF KLAF
Valid from the 08 at 18:00 until the 09 at 18:00 UTC


081720Z 0818/0918 VRB03KT P6SM SKC
FM090000 32009KT P6SM SHRA OVC090
TEMPO 0900/0902 4SM TS OVC025CB
FM090300 36014G24KT P6SM BKN030
FM090500 33012G23KT P6SM BKN040
FM090900 30013G21KT P6SM SKC



MET'MAP, your aeronautical weather chart ! - Copyright ORBIFLY December 2007 - Disclaimer

ORBIFLY MET'MAP TEAM :

Programming & Development : Alexandra Zaïnal
Concept & original design : Baudouin d'Aumeries
Assistance for programming : Marc-Olivier Méhu
Technical & hardware support : Manuel Goepfert

Contact : metmap@orbifly.com




SOURCES & CREDITS :

   NOAA       Earth
Advisory